createdAt,value
2023-04-23T00:01:17.196Z,48.61
2023-04-23T00:04:21.409Z,48.42
2023-04-23T00:07:23.503Z,48.47
2023-04-23T00:10:26.532Z,48.46
2023-04-23T00:13:28.536Z,48.36
2023-04-23T00:16:30.642Z,48.82
2023-04-23T00:19:32.283Z,48.79
2023-04-23T00:22:33.978Z,48.82
2023-04-23T00:25:35.668Z,49.31
2023-04-23T00:28:37.609Z,48.81
2023-04-23T00:31:39.660Z,48.91
2023-04-23T00:34:41.777Z,48.91
2023-04-23T00:37:44.036Z,48.74
2023-04-23T00:40:45.993Z,48.93
2023-04-23T00:43:52.531Z,49.40
2023-04-23T00:46:55.267Z,49.60
2023-04-23T00:49:58.713Z,49.67
2023-04-23T00:53:00.718Z,49.68
2023-04-23T00:56:04.826Z,49.58
2023-04-23T00:59:06.590Z,49.84
2023-04-23T01:02:08.546Z,49.92
2023-04-23T01:05:11.391Z,50.03
2023-04-23T01:08:16.017Z,49.98
2023-04-23T01:11:18.039Z,50.20
2023-04-23T01:14:20.280Z,50.09
2023-04-23T01:17:22.292Z,50.21
2023-04-23T01:20:24.063Z,50.33
2023-04-23T01:23:26.640Z,50.30
2023-04-23T01:26:28.305Z,50.28
2023-04-23T01:29:31.297Z,50.08
2023-04-23T01:32:33.332Z,50.02
2023-04-23T01:35:35.922Z,50.31
2023-04-23T01:38:38.356Z,50.57
2023-04-23T01:41:40.997Z,50.75
2023-04-23T01:44:43.736Z,50.57
2023-04-23T01:47:47.099Z,50.55
2023-04-23T01:50:50.778Z,50.54
2023-04-23T01:53:52.711Z,50.73
2023-04-23T01:56:55.213Z,50.69
2023-04-23T02:00:10.688Z,50.82
2023-04-23T02:03:15.919Z,50.99
2023-04-23T02:06:17.988Z,51.03
2023-04-23T02:09:19.675Z,51.17
2023-04-23T02:12:21.625Z,51.14
2023-04-23T02:15:23.317Z,51.16
2023-04-23T02:18:25.216Z,51.37
2023-04-23T02:21:27.366Z,51.45
2023-04-23T02:24:29.142Z,51.54
2023-04-23T02:27:32.717Z,51.57
2023-04-23T02:30:34.979Z,51.47
2023-04-23T02:33:36.604Z,51.57
2023-04-23T02:36:38.605Z,51.43
2023-04-23T02:39:40.385Z,51.59
2023-04-23T02:42:43.867Z,51.65
2023-04-23T02:45:45.846Z,51.88
2023-04-23T02:48:47.533Z,51.81
2023-04-23T02:51:49.400Z,51.84
2023-04-23T02:54:51.257Z,52.00
2023-04-23T02:57:53.019Z,52.03
2023-04-23T03:00:56.302Z,52.16
2023-04-23T03:03:58.748Z,52.26
2023-04-23T03:07:00.672Z,52.27
2023-04-23T03:10:02.958Z,52.24
2023-04-23T03:13:04.780Z,52.14
2023-04-23T03:16:06.689Z,52.55
2023-04-23T03:19:09.246Z,52.57
2023-04-23T03:22:11.181Z,52.70
2023-04-23T03:25:12.951Z,52.74
2023-04-23T03:28:14.717Z,52.73
2023-04-23T03:31:16.520Z,52.73
2023-04-23T03:34:18.617Z,52.79
2023-04-23T03:37:20.286Z,52.67
2023-04-23T03:40:22.627Z,52.82
2023-04-23T03:43:27.203Z,52.91
2023-04-23T03:46:37.846Z,53.08
2023-04-23T03:49:39.811Z,53.11
2023-04-23T03:52:42.242Z,53.09
2023-04-23T03:55:47.670Z,53.19
2023-04-23T03:58:50.387Z,53.44
2023-04-23T04:01:52.216Z,53.60
2023-04-23T04:04:54.573Z,53.80
2023-04-23T04:07:58.236Z,53.82
2023-04-23T04:11:00.814Z,53.96
2023-04-23T04:14:02.545Z,54.06
2023-04-23T04:17:04.224Z,54.15
2023-04-23T04:20:10.565Z,54.28
2023-04-23T04:23:12.232Z,54.29
2023-04-23T04:26:14.703Z,54.25
2023-04-23T04:29:16.333Z,54.43
2023-04-23T04:32:18.454Z,54.20
2023-04-23T04:35:20.227Z,54.32
2023-04-23T04:38:21.914Z,54.60
2023-04-23T04:41:27.740Z,54.85
2023-04-23T04:44:30.041Z,55.08
2023-04-23T04:47:32.141Z,55.40
2023-04-23T04:50:34.429Z,54.93
2023-04-23T04:53:36.166Z,55.35
2023-04-23T04:56:37.929Z,55.76
2023-04-23T04:59:39.883Z,55.57
2023-04-23T05:02:41.918Z,55.62
2023-04-23T05:05:44.720Z,55.67
2023-04-23T05:08:49.244Z,56.04
2023-04-23T05:11:51.319Z,56.15
2023-04-23T05:14:54.338Z,56.22
2023-04-23T05:17:56.215Z,56.23
2023-04-23T05:20:58.518Z,56.24
2023-04-23T05:24:07.571Z,55.79
2023-04-23T05:27:09.729Z,55.33
2023-04-23T05:30:11.930Z,54.67
2023-04-23T05:33:13.909Z,54.40
2023-04-23T05:36:17.427Z,54.00
2023-04-23T05:39:19.305Z,53.91
2023-04-23T05:42:21.462Z,53.65
2023-04-23T05:45:23.186Z,53.11
2023-04-23T05:48:24.978Z,52.91
2023-04-23T05:51:26.896Z,52.74
2023-04-23T05:54:28.991Z,52.74
2023-04-23T05:57:30.741Z,52.43
2023-04-23T06:00:34.841Z,52.31
2023-04-23T06:03:37.020Z,52.09
2023-04-23T06:06:39.285Z,51.66
2023-04-23T06:09:41.221Z,51.47
2023-04-23T06:12:43.149Z,51.51
2023-04-23T06:15:45.110Z,51.09
2023-04-23T06:18:46.884Z,50.84
2023-04-23T06:21:50.098Z,50.48
2023-04-23T06:25:01.678Z,50.09
2023-04-23T06:28:03.921Z,49.95
2023-04-23T06:31:09.100Z,49.61
2023-04-23T06:34:10.912Z,49.91
2023-04-23T06:37:12.693Z,49.47
2023-04-23T06:40:14.656Z,49.08
2023-04-23T06:43:16.437Z,48.94
2023-04-23T06:46:53.413Z,48.88
2023-04-23T06:49:55.125Z,48.75
2023-04-23T06:52:56.944Z,48.61
2023-04-23T06:55:58.654Z,48.22
2023-04-23T06:59:00.710Z,48.39
2023-04-23T07:02:02.496Z,48.04
2023-04-23T07:05:04.722Z,48.13
2023-04-23T07:08:06.434Z,47.68
2023-04-23T07:11:10.077Z,47.78
2023-04-23T07:14:11.824Z,47.12
2023-04-23T07:17:13.964Z,47.19
2023-04-23T07:20:16.079Z,47.64
2023-04-23T07:23:20.708Z,46.63
2023-04-23T07:26:27.535Z,46.51
2023-04-23T07:29:29.411Z,45.65
2023-04-23T07:32:31.414Z,44.99
2023-04-23T07:35:33.363Z,44.36
2023-04-23T07:38:35.282Z,44.09
2023-04-23T07:41:42.967Z,43.64
2023-04-23T07:44:44.965Z,43.45
2023-04-23T07:47:49.357Z,43.31
2023-04-23T07:50:51.357Z,42.93
2023-04-23T07:53:53.887Z,42.36
2023-04-23T07:56:56.848Z,41.93
2023-04-23T07:59:58.660Z,41.53
2023-04-23T08:03:00.575Z,41.12
2023-04-23T08:06:04.114Z,40.83
2023-04-23T08:09:05.921Z,41.37
2023-04-23T08:12:07.706Z,40.44
2023-04-23T08:15:10.180Z,40.06
2023-04-23T08:18:14.887Z,39.47
2023-04-23T08:21:16.975Z,38.86
2023-04-23T08:24:18.589Z,38.22
2023-04-23T08:27:21.132Z,39.12
2023-04-23T08:30:23.072Z,38.40
2023-04-23T08:33:24.964Z,37.58
2023-04-23T08:36:27.880Z,37.41
2023-04-23T08:39:32.354Z,36.52
2023-04-23T08:42:47.994Z,36.00
2023-04-23T08:45:49.929Z,36.40
2023-04-23T08:48:52.687Z,35.71
2023-04-23T08:51:58.403Z,35.46
2023-04-23T08:55:01.490Z,34.59
2023-04-23T08:58:05.713Z,34.68
2023-04-23T09:01:07.905Z,34.60
2023-04-23T09:04:10.598Z,34.36
2023-04-23T09:07:12.725Z,33.54
2023-04-23T09:10:17.694Z,33.89
2023-04-23T09:13:20.364Z,33.52
2023-04-23T09:16:22.117Z,33.26
2023-04-23T09:19:29.909Z,32.68
2023-04-23T09:23:00.970Z,33.05
2023-04-23T09:26:06.388Z,32.71
2023-04-23T09:29:13.173Z,32.82
2023-04-23T09:32:15.068Z,32.35
2023-04-23T09:35:20.937Z,32.02
2023-04-23T09:38:22.847Z,32.18
2023-04-23T09:41:26.468Z,33.18
2023-04-23T09:44:34.885Z,32.59
2023-04-23T09:47:48.167Z,32.37
2023-04-23T09:50:49.952Z,32.39
2023-04-23T09:53:52.519Z,33.76
2023-04-23T09:57:00.269Z,32.68
2023-04-23T10:03:15.985Z,32.76
2023-04-23T10:06:39.527Z,32.19
2023-04-23T10:09:41.421Z,31.72
2023-04-23T10:12:54.146Z,31.32
2023-04-23T10:16:07.463Z,31.03
2023-04-23T10:19:19.482Z,31.38
2023-04-23T10:22:21.830Z,31.10
2023-04-23T10:25:24.999Z,30.78
2023-04-23T10:28:31.284Z,30.73
2023-04-23T10:31:33.511Z,30.61
2023-04-23T10:34:37.528Z,30.50
2023-04-23T10:37:42.061Z,30.28
2023-04-23T10:40:48.524Z,30.61
2023-04-23T10:43:52.757Z,30.44
2023-04-23T10:46:57.401Z,30.49
2023-04-23T10:50:18.011Z,30.57
2023-04-23T10:53:22.819Z,31.08
2023-04-23T10:56:27.556Z,30.71
2023-04-23T10:59:31.913Z,30.35
2023-04-23T11:02:44.164Z,30.69
2023-04-23T11:05:46.125Z,30.58
2023-04-23T11:08:53.152Z,30.66
2023-04-23T11:11:55.119Z,30.12
2023-04-23T11:14:59.037Z,29.83
2023-04-23T11:18:01.511Z,29.96
2023-04-23T11:21:04.051Z,29.62
2023-04-23T11:24:07.225Z,29.39
2023-04-23T11:27:12.442Z,29.22
2023-04-23T11:30:19.691Z,29.19
2023-04-23T11:33:21.578Z,29.69
2023-04-23T11:36:23.569Z,29.26
2023-04-23T11:39:26.376Z,29.81
2023-04-23T11:42:28.876Z,29.50
2023-04-23T11:45:30.797Z,29.63
2023-04-23T11:48:34.496Z,30.38
2023-04-23T11:51:42.517Z,30.42
2023-04-23T11:54:44.230Z,29.89
2023-04-23T11:57:48.162Z,30.15
2023-04-23T12:00:57.461Z,29.96
2023-04-23T12:03:59.491Z,30.44
2023-04-23T12:07:04.331Z,30.26
2023-04-23T12:10:17.496Z,30.39
2023-04-23T12:13:23.859Z,30.05
2023-04-23T12:16:55.377Z,29.98
2023-04-23T12:19:57.101Z,29.92
2023-04-23T12:23:04.921Z,30.15
2023-04-23T12:26:14.691Z,30.16
2023-04-23T12:29:17.756Z,29.88
2023-04-23T12:32:23.860Z,30.12
2023-04-23T12:35:41.752Z,29.87
2023-04-23T12:38:43.857Z,29.69
2023-04-23T12:41:45.414Z,29.57
2023-04-23T12:44:47.625Z,29.66
2023-04-23T12:47:50.340Z,29.37
2023-04-23T12:50:52.701Z,28.70
2023-04-23T12:53:54.363Z,29.25
2023-04-23T12:56:56.152Z,28.88
2023-04-23T12:59:57.929Z,28.90
2023-04-23T13:02:59.720Z,29.32
2023-04-23T13:06:01.450Z,29.57
2023-04-23T13:09:04.710Z,29.71
2023-04-23T13:12:06.415Z,29.23
2023-04-23T13:15:08.608Z,29.08
2023-04-23T13:18:10.361Z,28.41
2023-04-23T13:21:12.344Z,28.67
2023-04-23T13:24:14.139Z,29.07
2023-04-23T13:27:15.799Z,29.40
2023-04-23T13:30:17.555Z,29.05
2023-04-23T13:33:20.545Z,28.98
2023-04-23T13:36:23.456Z,29.13
2023-04-23T13:39:25.346Z,28.92
2023-04-23T13:42:26.968Z,28.72
2023-04-23T13:45:28.796Z,28.72
2023-04-23T13:48:30.896Z,28.69
2023-04-23T13:51:36.130Z,28.92
2023-04-23T13:54:39.256Z,28.56
2023-04-23T13:57:41.062Z,28.61
2023-04-23T14:00:43.412Z,28.53
2023-04-23T14:03:46.657Z,28.51
2023-04-23T14:06:48.590Z,28.09
2023-04-23T14:09:52.175Z,27.68
2023-04-23T14:12:55.055Z,27.44
2023-04-23T14:15:56.792Z,26.32
2023-04-23T14:18:58.512Z,26.62
2023-04-23T14:22:00.302Z,26.77
2023-04-23T14:25:08.057Z,26.93
2023-04-23T14:28:32.760Z,26.38
2023-04-23T14:31:37.497Z,26.62
2023-04-23T14:34:39.290Z,26.63
2023-04-23T14:37:44.287Z,27.18
2023-04-23T14:40:46.227Z,28.25
2023-04-23T14:43:47.831Z,29.34
2023-04-23T14:46:50.550Z,29.57
2023-04-23T14:49:52.739Z,30.01
2023-04-23T14:52:54.800Z,30.85
2023-04-23T14:55:56.521Z,31.06
2023-04-23T14:58:58.250Z,31.54
2023-04-23T15:02:00.717Z,31.71
2023-04-23T15:05:02.620Z,31.63
2023-04-23T15:08:04.387Z,31.87
2023-04-23T15:11:12.481Z,32.01
2023-04-23T15:14:35.852Z,31.88
2023-04-23T15:17:37.587Z,31.93
2023-04-23T15:20:39.558Z,32.03
2023-04-23T15:23:41.625Z,31.94
2023-04-23T15:26:44.990Z,31.98
2023-04-23T15:29:46.727Z,31.96
2023-04-23T15:32:48.586Z,32.44
2023-04-23T15:35:53.365Z,32.31
2023-04-23T15:38:55.174Z,31.97
2023-04-23T15:41:57.585Z,31.85
2023-04-23T15:44:59.473Z,31.87
2023-04-23T15:48:01.296Z,31.65
2023-04-23T15:51:03.233Z,31.88
2023-04-23T15:54:07.519Z,32.12
2023-04-23T15:57:09.376Z,32.02
2023-04-23T16:00:11.937Z,32.65
2023-04-23T16:03:14.474Z,32.71
2023-04-23T16:06:16.446Z,32.95
2023-04-23T16:09:18.453Z,33.41
2023-04-23T16:12:34.679Z,33.63
2023-04-23T16:15:36.618Z,33.88
2023-04-23T16:18:38.352Z,34.15
2023-04-23T16:21:40.239Z,33.99
2023-04-23T16:24:41.961Z,34.29
2023-04-23T16:27:43.994Z,34.52
2023-04-23T16:30:45.834Z,34.53
2023-04-23T16:33:47.575Z,34.65
2023-04-23T16:36:49.328Z,34.50
2023-04-23T16:39:51.086Z,34.66
2023-04-23T16:42:53.198Z,34.73
2023-04-23T16:45:55.159Z,34.76
2023-04-23T16:48:59.887Z,35.08
2023-04-23T16:52:02.908Z,35.71
2023-04-23T16:55:05.341Z,35.77
2023-04-23T16:58:09.397Z,35.62
2023-04-23T17:01:11.515Z,36.27
2023-04-23T17:04:13.470Z,36.50
2023-04-23T17:07:15.349Z,36.64
2023-04-23T17:10:18.235Z,36.36
2023-04-23T17:13:20.054Z,36.93
2023-04-23T17:16:22.465Z,36.83
2023-04-23T17:19:24.291Z,36.85
2023-04-23T17:22:26.779Z,37.09
2023-04-23T17:25:28.608Z,37.32
2023-04-23T17:28:30.362Z,37.40
2023-04-23T17:31:32.259Z,37.59
2023-04-23T17:34:34.356Z,37.70
2023-04-23T17:37:35.912Z,37.65
2023-04-23T17:40:39.381Z,37.45
2023-04-23T17:43:41.293Z,38.18
2023-04-23T17:46:42.997Z,38.60
2023-04-23T17:49:44.794Z,40.03
2023-04-23T17:52:46.634Z,39.35
2023-04-23T17:55:48.395Z,40.67
2023-04-23T17:58:50.602Z,40.45
2023-04-23T18:01:52.408Z,40.69
2023-04-23T18:04:54.935Z,40.66
2023-04-23T18:07:57.580Z,41.06
2023-04-23T18:10:59.740Z,40.61
2023-04-23T18:14:01.865Z,41.13
2023-04-23T18:17:03.551Z,42.00
2023-04-23T18:20:06.149Z,41.28
2023-04-23T18:23:09.057Z,41.64
2023-04-23T18:26:10.805Z,42.38
2023-04-23T18:29:12.485Z,42.85
2023-04-23T18:32:24.015Z,42.64
2023-04-23T18:35:29.556Z,43.30
2023-04-23T18:38:38.376Z,43.27
2023-04-23T18:41:40.096Z,43.13
2023-04-23T18:44:42.070Z,43.63
2023-04-23T18:47:50.680Z,44.19
2023-04-23T18:50:56.625Z,43.47
2023-04-23T18:54:00.925Z,43.65
2023-04-23T18:57:02.721Z,44.59
2023-04-23T19:00:05.432Z,45.05
2023-04-23T19:03:19.468Z,45.38
2023-04-23T19:06:27.577Z,45.20
2023-04-23T19:09:29.368Z,45.57
2023-04-23T19:12:31.102Z,45.96
2023-04-23T19:15:32.896Z,46.32
2023-04-23T19:18:35.365Z,46.40
2023-04-23T19:21:37.362Z,46.64
2023-04-23T19:24:39.111Z,46.65
2023-04-23T19:27:40.788Z,46.98
2023-04-23T19:30:42.726Z,47.33
2023-04-23T19:33:45.692Z,47.05
2023-04-23T19:36:47.454Z,47.33
2023-04-23T19:39:49.636Z,47.48
2023-04-23T19:42:51.206Z,47.86
2023-04-23T19:45:52.961Z,47.22
2023-04-23T19:48:55.000Z,47.59
2023-04-23T19:51:57.530Z,48.17
2023-04-23T19:54:59.231Z,48.69
2023-04-23T19:58:05.539Z,49.30
2023-04-23T20:01:07.308Z,49.29
2023-04-23T20:04:09.331Z,49.41
2023-04-23T20:07:11.891Z,49.31
2023-04-23T20:10:15.743Z,48.75
2023-04-23T20:13:19.982Z,49.27
2023-04-23T20:16:21.766Z,49.46
2023-04-23T20:19:26.343Z,49.22
2023-04-23T20:22:29.044Z,49.43
2023-04-23T20:25:31.422Z,49.75
2023-04-23T20:28:33.728Z,49.89
2023-04-23T20:31:35.895Z,49.75
2023-04-23T20:34:37.537Z,49.81
2023-04-23T20:37:40.159Z,49.38
2023-04-23T20:40:41.839Z,49.80
2023-04-23T20:43:43.648Z,50.24
2023-04-23T20:46:45.768Z,50.40
2023-04-23T20:49:47.974Z,50.44
2023-04-23T20:52:49.758Z,50.81
2023-04-23T20:55:51.755Z,51.05
2023-04-23T20:58:53.475Z,51.05
2023-04-23T21:01:55.334Z,51.07
2023-04-23T21:04:57.138Z,51.27
2023-04-23T21:07:58.901Z,51.19
2023-04-23T21:11:01.256Z,51.44
2023-04-23T21:14:03.058Z,51.61
2023-04-23T21:17:05.117Z,51.70
2023-04-23T21:20:07.897Z,51.92
2023-04-23T21:23:12.640Z,51.37
2023-04-23T21:26:14.456Z,51.91
2023-04-23T21:29:16.169Z,52.03
2023-04-23T21:32:17.910Z,52.06
2023-04-23T21:35:19.601Z,52.25
2023-04-23T21:38:21.595Z,52.51
2023-04-23T21:41:23.924Z,52.71
2023-04-23T21:44:27.866Z,52.70
2023-04-23T21:47:29.741Z,52.26
2023-04-23T21:50:32.158Z,52.90
2023-04-23T21:53:33.999Z,53.06
2023-04-23T21:56:35.794Z,53.25
2023-04-23T21:59:37.577Z,53.35
2023-04-23T22:02:41.428Z,53.44
2023-04-23T22:05:43.456Z,53.59
2023-04-23T22:08:46.134Z,53.81
2023-04-23T22:12:01.005Z,54.03
2023-04-23T22:15:06.019Z,54.10
2023-04-23T22:18:07.980Z,54.26
2023-04-23T22:21:09.732Z,54.52
2023-04-23T22:24:11.468Z,54.63
2023-04-23T22:27:13.759Z,54.71
2023-04-23T22:30:15.698Z,54.97
2023-04-23T22:33:17.560Z,55.42
2023-04-23T22:36:20.561Z,55.22
2023-04-23T22:39:22.359Z,55.28
2023-04-23T22:42:24.046Z,55.36
2023-04-23T22:45:25.838Z,55.38
2023-04-23T22:48:28.092Z,55.45
2023-04-23T22:51:32.743Z,55.48
2023-04-23T22:54:34.399Z,55.72
2023-04-23T22:57:36.135Z,55.85
2023-04-23T23:00:38.249Z,55.87
2023-04-23T23:03:40.070Z,55.97
2023-04-23T23:06:42.624Z,55.53
2023-04-23T23:09:44.631Z,56.05
2023-04-23T23:12:46.512Z,56.25
2023-04-23T23:15:48.252Z,56.29
2023-04-23T23:18:50.007Z,56.31
2023-04-23T23:21:51.873Z,56.45
2023-04-23T23:24:53.959Z,56.59
2023-04-23T23:27:55.784Z,56.68
2023-04-23T23:30:57.861Z,56.77
2023-04-23T23:33:59.738Z,56.94
2023-04-23T23:37:01.531Z,56.91
2023-04-23T23:40:05.043Z,56.95
2023-04-23T23:43:06.839Z,56.99
2023-04-23T23:46:09.931Z,57.06
2023-04-23T23:49:11.731Z,57.25
2023-04-23T23:52:13.514Z,57.20
2023-04-23T23:55:15.809Z,57.24
2023-04-23T23:58:17.443Z,57.30
